createdAt,value
2023-07-04T00:00:50.504Z,25.00
2023-07-04T00:01:50.515Z,25.00
2023-07-04T00:02:50.516Z,25.00
2023-07-04T00:03:50.555Z,0.00
2023-07-04T00:04:50.586Z,0.00
2023-07-04T00:05:50.634Z,0.00
2023-07-04T00:06:50.697Z,0.00
2023-07-04T00:07:50.768Z,2.40
2023-07-04T00:08:50.833Z,12.89
2023-07-04T00:09:50.900Z,25.18
2023-07-04T00:10:51.143Z,24.95
2023-07-04T00:11:51.013Z,25.00
2023-07-04T00:12:51.075Z,25.51
2023-07-04T00:13:51.207Z,25.12
2023-07-04T00:14:51.165Z,25.00
2023-07-04T00:15:51.204Z,26.15
2023-07-04T00:16:51.315Z,25.36
2023-07-04T00:17:51.314Z,25.00
2023-07-04T00:18:51.276Z,27.37
2023-07-04T00:19:51.284Z,25.15
2023-07-04T00:20:51.410Z,25.15
2023-07-04T00:21:51.302Z,26.08
2023-07-04T00:22:51.353Z,25.00
2023-07-04T00:23:51.299Z,25.88
2023-07-04T00:24:51.335Z,25.85
2023-07-04T00:25:51.402Z,26.73
2023-07-04T00:26:51.422Z,25.90
2023-07-04T00:27:51.477Z,27.34
2023-07-04T00:28:51.461Z,25.98
2023-07-04T00:29:51.509Z,29.84
2023-07-04T00:30:51.737Z,25.47
2023-07-04T00:31:51.536Z,28.92
2023-07-04T00:32:51.615Z,25.00
2023-07-04T00:33:51.565Z,25.16
2023-07-04T00:34:51.571Z,29.52
2023-07-04T00:35:51.594Z,25.19
2023-07-04T00:36:51.593Z,25.38
2023-07-04T00:37:51.589Z,26.02
2023-07-04T00:38:51.575Z,26.53
2023-07-04T00:39:51.569Z,26.05
2023-07-04T00:40:51.825Z,28.42
2023-07-04T00:41:51.565Z,26.43
2023-07-04T00:42:51.575Z,28.81
2023-07-04T00:43:51.569Z,28.46
2023-07-04T00:44:51.572Z,28.70
2023-07-04T00:45:51.602Z,26.11
2023-07-04T00:46:51.620Z,27.03
2023-07-04T00:47:51.583Z,30.27
2023-07-04T00:48:51.586Z,26.12
2023-07-04T00:49:51.591Z,27.77
2023-07-04T00:50:51.798Z,24.98
2023-07-04T00:51:51.581Z,26.31
2023-07-04T00:52:51.585Z,26.81
2023-07-04T00:53:51.601Z,28.34
2023-07-04T00:54:51.615Z,26.58
2023-07-04T00:55:51.635Z,27.13
2023-07-04T00:56:51.617Z,28.66
2023-07-04T00:57:51.647Z,26.12
2023-07-04T00:58:51.641Z,28.09
2023-07-04T00:59:51.643Z,28.43
2023-07-04T01:00:51.981Z,27.40
2023-07-04T01:01:51.703Z,27.85
2023-07-04T01:02:51.741Z,25.00
2023-07-04T01:03:51.732Z,25.36
2023-07-04T01:04:51.642Z,28.93
2023-07-04T01:05:51.626Z,29.26
2023-07-04T01:06:51.613Z,26.24
2023-07-04T01:07:51.612Z,27.09
2023-07-04T01:08:51.593Z,28.01
2023-07-04T01:09:51.597Z,27.76
2023-07-04T01:10:51.970Z,30.86
2023-07-04T01:11:51.592Z,29.24
2023-07-04T01:12:51.586Z,26.11
2023-07-04T01:13:51.635Z,25.66
2023-07-04T01:14:51.568Z,29.40
2023-07-04T01:15:51.581Z,25.00
2023-07-04T01:16:51.579Z,27.23
2023-07-04T01:17:51.629Z,26.89
2023-07-04T01:18:51.568Z,25.83
2023-07-04T01:19:51.568Z,27.68
2023-07-04T01:20:51.811Z,28.84
2023-07-04T01:21:51.536Z,27.50
2023-07-04T01:22:51.546Z,27.27
2023-07-04T01:23:51.553Z,30.20
2023-07-04T01:24:51.557Z,26.24
2023-07-04T01:25:51.614Z,27.29
2023-07-04T01:26:51.570Z,26.51
2023-07-04T01:27:51.586Z,27.27
2023-07-04T01:28:51.590Z,26.66
2023-07-04T01:29:51.630Z,27.75
2023-07-04T01:30:51.978Z,26.58
2023-07-04T01:31:51.723Z,26.26
2023-07-04T01:32:51.692Z,26.32
2023-07-04T01:33:51.708Z,28.84
2023-07-04T01:34:51.697Z,31.46
2023-07-04T01:35:51.730Z,27.12
2023-07-04T01:36:51.751Z,26.79
2023-07-04T01:37:51.756Z,26.17
2023-07-04T01:38:51.773Z,28.76
2023-07-04T01:39:51.779Z,27.55
2023-07-04T01:40:52.077Z,28.94
2023-07-04T01:41:51.818Z,30.05
2023-07-04T01:42:51.836Z,27.25
2023-07-04T01:43:51.823Z,28.71
2023-07-04T01:44:51.811Z,31.22
2023-07-04T01:45:51.878Z,28.07
2023-07-04T01:46:51.849Z,28.05
2023-07-04T01:47:51.887Z,27.98
2023-07-04T01:48:51.821Z,27.90
2023-07-04T01:49:51.843Z,28.63
2023-07-04T01:50:52.004Z,31.45
2023-07-04T01:51:51.827Z,29.05
2023-07-04T01:52:51.865Z,29.58
2023-07-04T01:53:51.921Z,27.49
2023-07-04T01:54:51.922Z,27.94
2023-07-04T01:55:51.932Z,27.79
2023-07-04T01:56:51.928Z,26.40
2023-07-04T01:57:51.934Z,27.39
2023-07-04T01:58:51.959Z,28.85
2023-07-04T01:59:51.947Z,25.29
2023-07-04T02:00:52.245Z,25.45
2023-07-04T02:01:52.033Z,29.49
2023-07-04T02:02:52.110Z,25.17
2023-07-04T02:03:52.054Z,26.70
2023-07-04T02:04:52.092Z,30.01
2023-07-04T02:05:52.124Z,28.11
2023-07-04T02:06:52.106Z,27.44
2023-07-04T02:07:52.144Z,26.83
2023-07-04T02:08:52.128Z,25.45
2023-07-04T02:09:52.158Z,28.50
2023-07-04T02:10:52.401Z,26.12
2023-07-04T02:11:52.188Z,28.70
2023-07-04T02:12:52.231Z,28.58
2023-07-04T02:13:52.345Z,26.31
2023-07-04T02:14:52.331Z,27.68
2023-07-04T02:15:52.312Z,29.69
2023-07-04T02:16:52.313Z,29.28
2023-07-04T02:17:52.316Z,27.04
2023-07-04T02:18:52.308Z,29.22
2023-07-04T02:19:52.328Z,26.40
2023-07-04T02:20:52.559Z,28.12
2023-07-04T02:21:52.393Z,28.58
2023-07-04T02:22:52.380Z,29.67
2023-07-04T02:23:52.408Z,28.24
2023-07-04T02:24:52.401Z,30.22
2023-07-04T02:25:52.423Z,27.03
2023-07-04T02:26:52.458Z,28.97
2023-07-04T02:27:52.469Z,29.21
2023-07-04T02:28:52.476Z,25.12
2023-07-04T02:29:52.489Z,28.70
2023-07-04T02:30:52.806Z,29.96
2023-07-04T02:31:52.601Z,27.75
2023-07-04T02:32:52.646Z,30.13
2023-07-04T02:33:52.545Z,29.58
2023-07-04T02:34:52.565Z,28.50
2023-07-04T02:35:52.589Z,25.81
2023-07-04T02:36:52.585Z,31.29
2023-07-04T02:37:52.636Z,29.23
2023-07-04T02:38:52.634Z,26.79
2023-07-04T02:39:52.633Z,25.85
2023-07-04T02:40:53.063Z,26.88
2023-07-04T02:41:52.668Z,28.96
2023-07-04T02:42:52.711Z,29.38
2023-07-04T02:43:52.713Z,28.03
2023-07-04T02:44:52.716Z,28.71
2023-07-04T02:45:52.743Z,32.60
2023-07-04T02:46:52.784Z,28.60
2023-07-04T02:47:52.818Z,31.31
2023-07-04T02:48:52.791Z,26.84
2023-07-04T02:49:52.780Z,30.95
2023-07-04T02:50:53.140Z,28.47
2023-07-04T02:51:52.774Z,27.79
2023-07-04T02:52:52.771Z,29.48
2023-07-04T02:53:52.799Z,31.38
2023-07-04T02:54:52.767Z,29.10
2023-07-04T02:55:52.767Z,29.91
2023-07-04T02:56:52.772Z,28.36
2023-07-04T02:57:52.758Z,27.15
2023-07-04T02:58:52.800Z,26.24
2023-07-04T02:59:52.812Z,28.00
2023-07-04T03:00:53.171Z,29.06
2023-07-04T03:01:52.835Z,27.84
2023-07-04T03:02:53.042Z,27.04
2023-07-04T03:03:52.969Z,28.38
2023-07-04T03:04:53.364Z,29.85
2023-07-04T03:05:52.815Z,27.19
2023-07-04T03:06:52.807Z,27.43
2023-07-04T03:07:52.817Z,28.84
2023-07-04T03:08:52.827Z,25.41
2023-07-04T03:09:52.830Z,28.57
2023-07-04T03:10:53.113Z,28.11
2023-07-04T03:11:52.809Z,26.77
2023-07-04T03:12:52.803Z,25.92
2023-07-04T03:13:52.947Z,26.13
2023-07-04T03:14:52.804Z,26.25
2023-07-04T03:15:52.810Z,27.16
2023-07-04T03:16:52.822Z,27.62
2023-07-04T03:17:52.848Z,29.16
2023-07-04T03:18:52.812Z,29.50
2023-07-04T03:19:52.806Z,28.21
2023-07-04T03:20:53.147Z,25.66
2023-07-04T03:21:52.803Z,26.94
2023-07-04T03:22:52.833Z,30.20
2023-07-04T03:23:52.801Z,27.09
2023-07-04T03:24:52.805Z,26.90
2023-07-04T03:25:52.832Z,30.61
2023-07-04T03:26:52.824Z,26.66
2023-07-04T03:27:52.835Z,26.96
2023-07-04T03:28:52.832Z,27.64
2023-07-04T03:29:52.825Z,26.66
2023-07-04T03:30:53.123Z,29.72
2023-07-04T03:31:52.838Z,30.75
2023-07-04T03:32:52.918Z,27.32
2023-07-04T03:33:52.850Z,26.34
2023-07-04T03:34:52.852Z,27.51
2023-07-04T03:35:58.719Z,30.14
2023-07-04T03:36:52.869Z,30.46
2023-07-04T03:37:52.864Z,31.30
2023-07-04T03:38:52.864Z,30.63
2023-07-04T03:39:52.858Z,30.26
2023-07-04T03:40:53.144Z,29.28
2023-07-04T03:41:52.872Z,30.16
2023-07-04T03:42:52.885Z,28.73
2023-07-04T03:43:52.853Z,29.92
2023-07-04T03:44:52.842Z,28.32
2023-07-04T03:45:52.871Z,26.74
2023-07-04T03:46:52.847Z,25.22
2023-07-04T03:47:52.930Z,28.96
2023-07-04T03:48:52.956Z,27.18
2023-07-04T03:49:52.858Z,26.51
2023-07-04T03:50:53.056Z,28.54
2023-07-04T03:51:52.808Z,29.56
2023-07-04T03:52:52.814Z,31.54
2023-07-04T03:53:52.805Z,27.54
2023-07-04T03:54:52.809Z,30.31
2023-07-04T03:55:52.803Z,29.13
2023-07-04T03:56:52.820Z,28.56
2023-07-04T03:57:52.807Z,31.44
2023-07-04T03:58:52.793Z,28.65
2023-07-04T03:59:52.788Z,29.99
2023-07-04T04:00:53.213Z,26.24
2023-07-04T04:01:52.761Z,28.64
2023-07-04T04:02:52.837Z,27.39
2023-07-04T04:03:52.976Z,31.07
2023-07-04T04:04:52.932Z,29.01
2023-07-04T04:05:52.769Z,30.87
2023-07-04T04:06:52.763Z,31.58
2023-07-04T04:07:52.766Z,29.72
2023-07-04T04:08:52.761Z,31.72
2023-07-04T04:09:52.755Z,31.54
2023-07-04T04:10:52.911Z,27.79
2023-07-04T04:11:52.730Z,30.10
2023-07-04T04:12:52.738Z,31.30
2023-07-04T04:13:52.853Z,30.93
2023-07-04T04:14:52.713Z,32.40
2023-07-04T04:15:52.715Z,30.64
2023-07-04T04:16:52.848Z,30.56
2023-07-04T04:17:52.745Z,29.99
2023-07-04T04:18:52.724Z,30.28
2023-07-04T04:19:52.718Z,27.25
2023-07-04T04:20:53.080Z,26.22
2023-07-04T04:21:52.706Z,27.94
2023-07-04T04:22:52.705Z,27.42
2023-07-04T04:23:52.722Z,29.77
2023-07-04T04:24:52.707Z,29.16
2023-07-04T04:25:52.713Z,29.39
2023-07-04T04:26:52.719Z,28.90
2023-07-04T04:27:52.689Z,27.69
2023-07-04T04:28:52.682Z,28.40
2023-07-04T04:29:52.693Z,26.25
2023-07-04T04:30:52.874Z,29.58
2023-07-04T04:31:52.662Z,29.58
2023-07-04T04:32:52.768Z,26.24
2023-07-04T04:33:52.740Z,25.00
2023-07-04T04:34:52.675Z,26.74
2023-07-04T04:35:52.682Z,27.71
2023-07-04T04:36:52.686Z,26.41
2023-07-04T04:37:52.736Z,27.82
2023-07-04T04:38:52.676Z,27.17
2023-07-04T04:39:52.665Z,32.02
2023-07-04T04:40:53.034Z,29.66
2023-07-04T04:41:52.672Z,30.06
2023-07-04T04:42:52.662Z,27.00
2023-07-04T04:43:52.692Z,27.84
2023-07-04T04:44:52.654Z,30.75
2023-07-04T04:45:52.840Z,29.89
2023-07-04T04:46:52.742Z,30.71
2023-07-04T04:47:52.675Z,30.25
2023-07-04T04:48:52.659Z,27.20
2023-07-04T04:49:52.669Z,29.74
2023-07-04T04:50:52.845Z,27.30
2023-07-04T04:51:52.633Z,27.13
2023-07-04T04:52:52.633Z,31.84
2023-07-04T04:53:52.634Z,26.10
2023-07-04T04:54:52.657Z,29.05
2023-07-04T04:55:52.629Z,25.27
2023-07-04T04:56:52.628Z,30.42
2023-07-04T04:57:52.629Z,29.89
2023-07-04T04:58:53.451Z,27.38
2023-07-04T04:59:52.664Z,28.04
2023-07-04T05:00:52.795Z,29.01
2023-07-04T05:01:52.696Z,26.15
2023-07-04T05:02:52.843Z,26.90
2023-07-04T05:03:52.700Z,26.22
2023-07-04T05:04:52.624Z,28.81
2023-07-04T05:05:52.630Z,26.06
2023-07-04T05:06:52.630Z,28.01
2023-07-04T05:07:52.650Z,28.86
2023-07-04T05:08:52.704Z,29.99
2023-07-04T05:09:52.639Z,29.56
2023-07-04T05:10:52.804Z,31.35
2023-07-04T05:11:52.621Z,29.64
2023-07-04T05:12:52.626Z,26.56
2023-07-04T05:13:52.701Z,30.48
2023-07-04T05:14:52.615Z,26.94
2023-07-04T05:15:52.931Z,28.11
2023-07-04T05:16:52.606Z,32.34
2023-07-04T05:17:52.709Z,28.05
2023-07-04T05:18:52.628Z,28.61
2023-07-04T05:19:52.642Z,27.33
2023-07-04T05:20:52.862Z,27.94
2023-07-04T05:21:52.699Z,27.62
2023-07-04T05:22:52.702Z,29.59
2023-07-04T05:23:52.712Z,31.46
2023-07-04T05:24:52.831Z,27.38
2023-07-04T05:25:52.732Z,30.62
2023-07-04T05:26:52.765Z,26.93
2023-07-04T05:27:52.730Z,28.82
2023-07-04T05:28:52.738Z,25.81
2023-07-04T05:29:52.762Z,27.50
2023-07-04T05:30:52.982Z,31.74
2023-07-04T05:31:52.902Z,28.78
2023-07-04T05:32:52.896Z,31.03
2023-07-04T05:33:52.902Z,28.36
2023-07-04T05:34:52.888Z,29.18
2023-07-04T05:35:52.906Z,28.34
2023-07-04T05:36:53.027Z,27.14
2023-07-04T05:37:52.962Z,25.49
2023-07-04T05:38:52.976Z,28.08
2023-07-04T05:39:52.977Z,30.13
2023-07-04T05:40:53.225Z,26.86
2023-07-04T05:41:53.025Z,33.77
2023-07-04T05:42:53.503Z,29.32
2023-07-04T05:43:53.468Z,27.85
2023-07-04T05:44:53.115Z,28.26
2023-07-04T05:45:53.122Z,31.27
2023-07-04T05:46:53.185Z,28.51
2023-07-04T05:47:53.288Z,32.74
2023-07-04T05:48:53.249Z,31.42
2023-07-04T05:49:53.290Z,28.13
2023-07-04T05:50:53.460Z,31.26
2023-07-04T05:51:53.439Z,32.26
2023-07-04T05:52:53.315Z,33.26
2023-07-04T05:53:53.369Z,36.29
2023-07-04T05:54:53.363Z,33.33
2023-07-04T05:55:53.446Z,36.84
2023-07-04T05:56:53.997Z,37.56
2023-07-04T05:57:53.559Z,35.46
2023-07-04T05:58:53.599Z,40.01
2023-07-04T05:59:53.661Z,44.87
2023-07-04T06:00:54.074Z,54.53
2023-07-04T06:01:53.951Z,60.77
2023-07-04T06:02:53.827Z,64.45
2023-07-04T06:03:53.844Z,68.83
2023-07-04T06:04:53.960Z,63.47
2023-07-04T06:05:53.937Z,47.31
2023-07-04T06:06:53.970Z,41.87
2023-07-04T06:07:53.932Z,44.34
2023-07-04T06:08:53.995Z,48.27
2023-07-04T06:09:54.456Z,58.98
2023-07-04T06:10:54.360Z,65.31
2023-07-04T06:11:54.157Z,67.60
2023-07-04T06:12:54.168Z,72.08
2023-07-04T06:13:54.513Z,79.83
2023-07-04T06:14:54.477Z,84.41
2023-07-04T06:15:54.360Z,83.50
2023-07-04T06:16:54.340Z,84.69
2023-07-04T06:17:55.506Z,90.68
2023-07-04T06:18:54.531Z,96.51
2023-07-04T06:19:54.570Z,95.49
2023-07-04T06:20:54.705Z,93.87
2023-07-04T06:21:54.652Z,90.37
2023-07-04T06:22:54.683Z,83.98
2023-07-04T06:23:55.002Z,84.54
2023-07-04T06:24:54.846Z,86.69
2023-07-04T06:25:54.932Z,87.41
2023-07-04T06:26:55.010Z,83.59
2023-07-04T06:27:55.091Z,87.67
2023-07-04T06:28:55.494Z,77.29
2023-07-04T06:29:55.249Z,78.74
2023-07-04T06:30:55.377Z,72.40
2023-07-04T06:31:55.402Z,74.38
2023-07-04T06:32:55.534Z,74.05
2023-07-04T06:33:56.047Z,79.00
2023-07-04T06:34:55.975Z,81.97
2023-07-04T06:35:55.680Z,82.22
2023-07-04T06:36:55.744Z,85.89
2023-07-04T06:37:55.884Z,90.61
2023-07-04T06:38:55.889Z,93.38
2023-07-04T06:39:55.985Z,96.34
2023-07-04T06:40:56.020Z,96.94
2023-07-04T06:41:56.102Z,96.43
2023-07-04T06:42:56.158Z,94.34
2023-07-04T06:43:56.279Z,101.00
2023-07-04T06:44:56.296Z,101.90
2023-07-04T06:45:56.400Z,103.01
2023-07-04T06:46:56.455Z,103.85
2023-07-04T06:47:56.585Z,103.88
2023-07-04T06:48:56.503Z,100.08
2023-07-04T06:49:56.973Z,115.09
2023-07-04T06:50:56.605Z,114.75
2023-07-04T06:51:57.569Z,120.58
2023-07-04T06:52:56.648Z,116.51
2023-07-04T06:53:57.002Z,119.69
2023-07-04T06:54:56.722Z,120.46
2023-07-04T06:55:56.758Z,114.40
2023-07-04T06:56:56.861Z,111.44
2023-07-04T06:57:56.835Z,111.27
2023-07-04T06:58:56.863Z,108.49
2023-07-04T06:59:56.895Z,106.38
2023-07-04T07:00:57.329Z,108.89
2023-07-04T07:01:57.099Z,101.78
2023-07-04T07:02:57.299Z,111.71
2023-07-04T07:03:57.754Z,108.10
2023-07-04T07:04:57.528Z,107.65
2023-07-04T07:05:57.068Z,102.25
2023-07-04T07:06:57.094Z,104.44
2023-07-04T07:07:57.120Z,103.69
2023-07-04T07:08:57.175Z,100.13
2023-07-04T07:09:57.510Z,90.93
2023-07-04T07:10:57.190Z,92.63
2023-07-04T07:11:57.478Z,90.60
2023-07-04T07:12:57.227Z,86.68
2023-07-04T07:13:57.383Z,86.93
2023-07-04T07:14:57.299Z,89.83
2023-07-04T07:16:56.512Z,91.51
2023-07-04T07:17:57.440Z,84.43
2023-07-04T07:18:59.065Z,77.65
2023-07-04T07:19:58.124Z,78.77
2023-07-04T07:20:57.419Z,78.79
2023-07-04T07:21:57.432Z,70.33
2023-07-04T07:22:57.479Z,71.85
2023-07-04T07:23:58.693Z,63.57
2023-07-04T07:24:58.006Z,55.89
2023-07-04T07:25:57.866Z,50.16
2023-07-04T07:26:58.505Z,52.30
2023-07-04T07:27:58.666Z,53.88
2023-07-04T07:28:57.694Z,65.48
2023-07-04T07:29:58.497Z,66.76
2023-07-04T07:30:57.678Z,55.52
2023-07-04T07:31:58.170Z,51.28
2023-07-04T07:32:57.741Z,51.12
2023-07-04T07:33:58.016Z,46.87
2023-07-04T07:34:57.761Z,53.79
2023-07-04T07:35:57.779Z,60.50
2023-07-04T07:36:57.819Z,67.31
2023-07-04T07:37:57.845Z,73.73
2023-07-04T07:38:58.067Z,78.47
2023-07-04T07:39:57.883Z,74.32
2023-07-04T07:40:57.916Z,82.83
2023-07-04T07:41:57.946Z,87.88
2023-07-04T07:42:57.950Z,80.69
2023-07-04T07:43:57.986Z,86.06
2023-07-04T07:44:58.501Z,94.70
2023-07-04T07:45:58.100Z,94.19
2023-07-04T07:46:58.645Z,91.86
2023-07-04T07:47:58.572Z,83.94
2023-07-04T07:48:59.309Z,83.32
2023-07-04T07:49:58.183Z,77.06
2023-07-04T07:50:58.292Z,76.02
2023-07-04T07:51:58.499Z,79.35
2023-07-04T07:52:58.445Z,78.78
2023-07-04T07:53:58.513Z,73.83
2023-07-04T07:54:58.627Z,66.84
2023-07-04T07:55:58.718Z,63.17
2023-07-04T07:56:58.994Z,66.87
2023-07-04T07:58:01.024Z,56.36
2023-07-04T07:58:58.809Z,55.67
2023-07-04T07:59:58.780Z,47.62
2023-07-04T08:00:58.792Z,43.08
2023-07-04T08:01:58.794Z,38.73
2023-07-04T08:02:58.880Z,30.68
2023-07-04T08:03:58.969Z,28.98
2023-07-04T08:04:58.926Z,25.66
2023-07-04T08:05:58.835Z,25.40
2023-07-04T08:06:58.848Z,23.73
2023-07-04T08:07:58.870Z,26.45
2023-07-04T08:08:59.011Z,31.88
2023-07-04T08:09:59.006Z,30.74
2023-07-04T08:10:58.881Z,41.47
2023-07-04T08:11:59.063Z,31.60
2023-07-04T08:12:58.879Z,24.64
2023-07-04T08:13:59.073Z,29.38
2023-07-04T08:14:58.894Z,32.08
2023-07-04T08:15:58.981Z,33.02
2023-07-04T08:16:59.549Z,35.34
2023-07-04T08:17:59.119Z,35.68
2023-07-04T08:18:59.151Z,38.92
2023-07-04T08:19:59.227Z,47.41
2023-07-04T08:20:59.296Z,45.42
2023-07-04T08:21:59.368Z,41.07
2023-07-04T08:22:59.441Z,42.25
2023-07-04T08:23:59.597Z,39.78
2023-07-04T08:24:59.551Z,42.32
2023-07-04T08:25:59.595Z,40.99
2023-07-04T08:26:59.729Z,41.30
2023-07-04T08:27:59.711Z,41.50
2023-07-04T08:29:00.064Z,41.23
2023-07-04T08:29:59.847Z,34.45
2023-07-04T08:30:59.886Z,45.16
2023-07-04T08:31:59.957Z,57.06
2023-07-04T08:33:00.029Z,56.51
2023-07-04T08:34:00.071Z,48.15
2023-07-04T08:35:00.513Z,45.43
2023-07-04T08:36:00.134Z,38.38
2023-07-04T08:37:00.185Z,38.11
2023-07-04T08:38:00.232Z,29.92
2023-07-04T08:39:00.290Z,31.00
2023-07-04T08:40:00.333Z,29.11
2023-07-04T08:41:00.515Z,31.00
2023-07-04T08:42:00.517Z,35.17
2023-07-04T08:43:00.485Z,34.28
2023-07-04T08:44:00.538Z,39.22
2023-07-04T08:45:00.601Z,34.50
2023-07-04T08:46:01.085Z,40.73
2023-07-04T08:47:00.718Z,40.39
2023-07-04T08:48:00.837Z,44.71
2023-07-04T08:49:00.818Z,47.76
2023-07-04T08:50:00.926Z,55.45
2023-07-04T08:51:01.028Z,59.07
2023-07-04T08:52:00.956Z,69.77
2023-07-04T08:53:01.002Z,83.13
2023-07-04T08:54:01.033Z,93.58
2023-07-04T08:55:01.082Z,104.70
2023-07-04T08:56:01.101Z,95.12
2023-07-04T08:57:01.141Z,91.83
2023-07-04T08:58:01.162Z,88.88
2023-07-04T08:59:01.542Z,83.58
2023-07-04T09:00:01.244Z,78.70
2023-07-04T09:01:01.274Z,74.62
2023-07-04T09:02:01.350Z,71.22
2023-07-04T09:03:01.509Z,64.78
2023-07-04T09:04:01.557Z,62.63
2023-07-04T09:05:01.436Z,66.56
2023-07-04T09:06:01.525Z,66.54
2023-07-04T09:07:01.523Z,61.00
2023-07-04T09:08:01.594Z,50.40
2023-07-04T09:09:01.630Z,57.66
2023-07-04T09:10:01.681Z,65.01
2023-07-04T09:11:01.718Z,64.82
2023-07-04T09:12:01.775Z,65.55
2023-07-04T09:13:01.891Z,75.61
2023-07-04T09:14:02.147Z,85.61
2023-07-04T09:15:01.916Z,87.05
2023-07-04T09:16:02.085Z,82.22
2023-07-04T09:17:01.996Z,77.96
2023-07-04T09:18:16.580Z,76.90
2023-07-04T09:19:02.055Z,77.37
2023-07-04T09:20:02.043Z,79.25
2023-07-04T09:21:02.537Z,80.84
2023-07-04T09:22:02.024Z,82.93
2023-07-04T09:23:02.032Z,78.38
2023-07-04T09:24:02.034Z,79.55
2023-07-04T09:25:02.032Z,80.09
2023-07-04T09:26:02.036Z,77.25
2023-07-04T09:27:02.029Z,75.80
2023-07-04T09:28:02.008Z,74.70
2023-07-04T09:29:02.012Z,72.41
2023-07-04T09:30:02.024Z,79.95
2023-07-04T09:31:02.035Z,79.24
2023-07-04T09:32:02.433Z,79.78
2023-07-04T09:33:01.999Z,76.83
2023-07-04T09:34:02.039Z,75.23
2023-07-04T09:35:02.044Z,78.49
2023-07-04T09:36:02.000Z,83.67
2023-07-04T09:37:02.000Z,83.72
2023-07-04T09:38:02.031Z,82.46
2023-07-04T09:39:01.986Z,78.69
2023-07-04T09:40:02.053Z,80.27
2023-07-04T09:41:02.051Z,79.82
2023-07-04T09:43:00.969Z,90.15
2023-07-04T09:44:01.987Z,85.93
2023-07-04T09:45:02.065Z,71.51
2023-07-04T09:46:02.040Z,70.88
2023-07-04T09:47:01.974Z,79.76
2023-07-04T09:48:02.001Z,76.22
2023-07-04T09:49:01.950Z,77.51
2023-07-04T09:50:01.987Z,79.44
2023-07-04T09:51:01.957Z,83.88
2023-07-04T09:52:01.957Z,89.57
2023-07-04T09:53:01.986Z,92.47
2023-07-04T09:54:01.952Z,80.43
2023-07-04T09:55:01.953Z,80.31
2023-07-04T09:56:01.944Z,74.27
2023-07-04T09:57:01.935Z,71.03
2023-07-04T09:58:01.928Z,70.35
2023-07-04T09:59:01.938Z,64.23
2023-07-04T10:00:01.976Z,65.41
2023-07-04T10:01:02.009Z,72.07
2023-07-04T10:02:01.979Z,68.78
2023-07-04T10:03:02.009Z,69.03
2023-07-04T10:04:01.936Z,65.23
2023-07-04T10:05:01.964Z,64.89
2023-07-04T10:06:02.075Z,69.20
2023-07-04T10:07:01.927Z,68.46
2023-07-04T10:08:01.925Z,63.68
2023-07-04T10:09:01.931Z,58.90
2023-07-04T10:10:02.056Z,54.52
2023-07-04T10:11:01.909Z,60.21
2023-07-04T10:12:01.901Z,62.78
2023-07-04T10:13:01.901Z,59.51
2023-07-04T10:14:02.024Z,52.62
2023-07-04T10:15:01.900Z,44.22
2023-07-04T10:16:01.877Z,42.31
2023-07-04T10:17:01.910Z,42.93
2023-07-04T10:18:01.914Z,42.94
2023-07-04T10:19:01.873Z,42.56
2023-07-04T10:20:01.900Z,35.98
2023-07-04T10:21:01.876Z,29.29
2023-07-04T10:22:01.892Z,27.22
2023-07-04T10:23:01.906Z,31.05
2023-07-04T10:24:01.869Z,34.79
2023-07-04T10:25:01.860Z,33.85
2023-07-04T10:26:01.899Z,26.90
2023-07-04T10:27:01.854Z,25.00
2023-07-04T10:28:01.860Z,28.66
2023-07-04T10:29:01.853Z,31.33
2023-07-04T10:30:01.855Z,35.05
2023-07-04T10:31:02.290Z,40.53
2023-07-04T10:32:01.847Z,39.36
2023-07-04T10:33:01.888Z,30.48
2023-07-04T10:34:01.842Z,27.14
2023-07-04T10:35:01.838Z,33.05
2023-07-04T10:36:01.837Z,26.65
2023-07-04T10:37:01.846Z,32.64
2023-07-04T10:38:01.856Z,29.98
2023-07-04T10:39:01.839Z,32.42
2023-07-04T10:40:01.817Z,37.27
2023-07-04T10:41:01.818Z,41.44
2023-07-04T10:42:01.815Z,41.20
2023-07-04T10:43:01.825Z,42.07
2023-07-04T10:44:01.866Z,36.93
2023-07-04T10:45:01.883Z,33.01
2023-07-04T10:46:02.213Z,31.15
2023-07-04T10:47:02.053Z,37.73
2023-07-04T10:48:01.969Z,41.23
2023-07-04T10:49:01.929Z,32.95
2023-07-04T10:50:01.929Z,33.74
2023-07-04T10:51:01.917Z,37.17
2023-07-04T10:52:01.923Z,29.50
2023-07-04T10:53:01.935Z,28.29
2023-07-04T10:54:02.052Z,26.18
2023-07-04T10:55:01.968Z,29.07
2023-07-04T10:56:01.984Z,29.07
2023-07-04T10:57:01.974Z,26.34
2023-07-04T10:58:01.998Z,28.71
2023-07-04T10:59:02.012Z,33.06
2023-07-04T11:00:04.450Z,37.56
2023-07-04T11:01:02.104Z,32.84
2023-07-04T11:02:02.057Z,31.25
2023-07-04T11:03:02.097Z,29.78
2023-07-04T11:04:02.068Z,36.86
2023-07-04T11:05:01.996Z,31.70
2023-07-04T11:06:04.495Z,32.48
2023-07-04T11:07:01.975Z,32.67
2023-07-04T11:08:01.976Z,33.08
2023-07-04T11:09:01.970Z,32.57
2023-07-04T11:10:01.980Z,32.44
2023-07-04T11:11:01.956Z,22.99
2023-07-04T11:12:01.983Z,27.51
2023-07-04T11:13:01.966Z,27.77
2023-07-04T11:14:01.952Z,27.79
2023-07-04T11:15:01.941Z,30.75
2023-07-04T11:16:01.940Z,33.35
2023-07-04T11:17:03.460Z,29.41
2023-07-04T11:18:02.264Z,27.54
2023-07-04T11:19:02.576Z,30.37
2023-07-04T11:20:02.343Z,29.30
2023-07-04T11:21:02.345Z,28.72
2023-07-04T11:22:02.401Z,25.00
2023-07-04T11:23:05.608Z,31.00
2023-07-04T11:24:02.454Z,31.18
2023-07-04T11:25:02.453Z,27.41
2023-07-04T11:26:02.478Z,28.54
2023-07-04T11:27:02.456Z,28.20
2023-07-04T11:28:02.452Z,23.49
2023-07-04T11:29:02.460Z,26.94
2023-07-04T11:30:02.532Z,32.79
2023-07-04T11:31:02.489Z,42.79
2023-07-04T11:32:02.456Z,40.45
2023-07-04T11:33:02.473Z,43.12
2023-07-04T11:34:02.480Z,51.37
2023-07-04T11:35:02.457Z,43.15
2023-07-04T11:36:02.444Z,42.84
2023-07-04T11:37:02.444Z,45.19
2023-07-04T11:38:02.442Z,39.89
2023-07-04T11:39:02.420Z,38.15
2023-07-04T11:40:02.430Z,35.09
2023-07-04T11:41:02.409Z,33.40
2023-07-04T11:42:02.482Z,26.01
2023-07-04T11:43:02.504Z,32.45
2023-07-04T11:44:02.566Z,27.67
2023-07-04T11:45:02.608Z,28.37
2023-07-04T11:46:02.691Z,30.06
2023-07-04T11:47:02.709Z,34.37
2023-07-04T11:48:02.804Z,36.63
2023-07-04T11:49:02.787Z,36.09
2023-07-04T11:50:02.840Z,35.83
2023-07-04T11:51:02.880Z,34.34
2023-07-04T11:52:02.956Z,39.02
2023-07-04T11:53:02.969Z,32.54
2023-07-04T11:54:03.008Z,33.68
2023-07-04T11:55:03.037Z,35.45
2023-07-04T11:56:03.081Z,32.78
2023-07-04T11:57:03.745Z,34.06
2023-07-04T11:58:03.171Z,27.36
2023-07-04T11:59:03.187Z,33.94
2023-07-04T12:00:03.234Z,29.22
2023-07-04T12:01:03.239Z,28.57
2023-07-04T12:02:03.281Z,29.68
2023-07-04T12:03:03.405Z,26.83
2023-07-04T12:04:03.465Z,25.28
2023-07-04T12:05:03.425Z,25.00
2023-07-04T12:06:03.405Z,25.00
2023-07-04T12:07:03.443Z,29.14
2023-07-04T12:08:03.461Z,29.83
2023-07-04T12:09:03.485Z,30.12
2023-07-04T12:10:03.530Z,27.15
2023-07-04T12:11:03.549Z,25.59
2023-07-04T12:12:03.588Z,30.20
2023-07-04T12:13:03.630Z,25.00
2023-07-04T12:14:03.672Z,33.65
2023-07-04T12:15:03.682Z,34.64
2023-07-04T12:16:03.736Z,35.12
2023-07-04T12:17:03.732Z,32.48
2023-07-04T12:18:03.851Z,31.32
2023-07-04T12:19:03.814Z,30.60
2023-07-04T12:20:03.830Z,37.09
2023-07-04T12:21:03.870Z,38.50
2023-07-04T12:22:03.905Z,39.37
2023-07-04T12:23:03.940Z,41.19
2023-07-04T12:24:03.969Z,40.61
2023-07-04T12:25:04.005Z,38.92
2023-07-04T12:26:04.035Z,41.99
2023-07-04T12:27:04.074Z,40.92
2023-07-04T12:28:04.118Z,41.21
2023-07-04T12:29:04.189Z,43.19
2023-07-04T12:30:04.599Z,45.14
2023-07-04T12:32:03.218Z,50.41
2023-07-04T12:33:07.247Z,49.34
2023-07-04T12:36:03.216Z,49.87
2023-07-04T12:37:04.240Z,50.89
2023-07-04T12:38:04.270Z,53.56
2023-07-04T12:39:04.232Z,55.66
2023-07-04T12:40:04.244Z,60.29
2023-07-04T12:41:04.237Z,61.16
2023-07-04T12:42:04.239Z,63.66
2023-07-04T12:45:03.226Z,60.32
2023-07-04T12:50:04.309Z,60.80
2023-07-04T12:51:04.300Z,62.90
2023-07-04T12:52:04.207Z,65.29
2023-07-04T12:53:04.203Z,68.71
2023-07-04T12:54:04.219Z,74.29
2023-07-04T12:55:04.211Z,72.87
2023-07-04T12:56:04.194Z,72.41
2023-07-04T12:57:04.185Z,75.44
2023-07-04T12:58:04.173Z,75.29
2023-07-04T12:59:04.180Z,76.56
2023-07-04T13:00:04.178Z,75.74
2023-07-04T13:01:04.381Z,77.24
2023-07-04T13:02:05.508Z,79.23
2023-07-04T13:03:04.374Z,83.82